Rosamond, CA

2:11 AM PDT on September 01, 2015 (GMT -0700)
Freedom Acres | | Change Station
CLOSE
Current Station
Personal Weather Station
Location: KC6URU Rosamond, CA
Elevation: 2402 ft
Nearby Weather Stations

Elev 2402 ft 34.82 °N, 118.27 °W | Updated 35 seconds ago

Clear
Clear
66.0 °F
Feels Like 66.0 °F
N
3.8
Wind Variable Wind from NW
Gusts 4.5 mph

Today
High -- | Low -- °F
--% Chance of Precip.
Yesterday
High -- | Low -- °F
Precip. -- in
6:25 AM 7:19 PM
Waning Gibbous, 90% visible
Pressure 29.84 in
Visibility 10.0 miles
Clouds Clear
Dew Point 47 °F
Humidity 50%
Rainfall 0.00 in
Snow Depth Not available.
UV 0 out of 12
Pollen 8.00 out of 12
Air Quality Not available.
Flu Activity Not available.
METAR KWJF 010856Z AUTO 26014KT 10SM CLR 23/02 A2991 RMK AO2 SLP105 T02280017 58003
Pressure 29.84 in
Visibility 10.0 miles
Clouds Clear
Dew Point 47 °F
Humidity 50%
Rainfall 0.00 in
Snow Depth Not available.
UV 0 out of 12
Pollen 8.00 out of 12
Air Quality Not available.
Flu Activity Not available.
METAR KWJF 010856Z AUTO 26014KT 10SM CLR 23/02 A2991 RMK AO2 SLP105 T02280017 58003

10-Day Weather Forecast

×

Almanac

Astronomy

Sep. 01, 2015 Rise Set
Actual Time
Civil Twilight
Nautical Twilight
Astronomical Twilight
Moon
Length of Visible Light
Length of Day
Tomorrow will be .
, % of the Moon is Illuminated

Today's Extremes

State Highs State Lows

Community

WunderPhotos

Upload Photos

1,851,490 photos uploaded!

WunderBlogs® & News

Nearby

Air Quality

  Air Quality AQ Index Pollutant
Not available.

Snow Depth

Station Depth Elevation

Earthquake Activity

City Distance Mag. Time & Date
Minimum magnitude displayed is 2.5.

Coastal Water Temperatures

Place Temperature

Stations

Nearby Weather Stations

Station Location Temp. Windchill Dew Point Humidity Wind Precip. Elev Updated Type